sensor_id;sensor_type;location;lat;lon;timestamp;pressure;altitude;pressure_sealevel;temperature;humidity
56894;BME280;43392;50.078;13.704;2023-03-26T00:00:06;96099.84;;;6.14;77.75
56894;BME280;43392;50.078;13.704;2023-03-26T00:02:39;96104.34;;;6.18;77.51
56894;BME280;43392;50.078;13.704;2023-03-26T00:05:07;96117.66;;;6.23;77.61
56894;BME280;43392;50.078;13.704;2023-03-26T00:07:34;96110.47;;;6.29;77.64
56894;BME280;43392;50.078;13.704;2023-03-26T00:10:01;96112.31;;;6.33;77.16
56894;BME280;43392;50.078;13.704;2023-03-26T00:12:29;96107.28;;;6.37;77.13
56894;BME280;43392;50.078;13.704;2023-03-26T00:14:55;96099.25;;;6.42;77.15
56894;BME280;43392;50.078;13.704;2023-03-26T00:17:22;96076.09;;;6.32;77.01
56894;BME280;43392;50.078;13.704;2023-03-26T00:19:49;96105.91;;;6.49;76.88
56894;BME280;43392;50.078;13.704;2023-03-26T00:22:18;96112.03;;;6.50;76.64
56894;BME280;43392;50.078;13.704;2023-03-26T00:24:44;96111.22;;;6.49;76.86
56894;BME280;43392;50.078;13.704;2023-03-26T00:27:13;96107.50;;;6.50;77.08
56894;BME280;43392;50.078;13.704;2023-03-26T00:29:41;96113.63;;;6.51;76.61
56894;BME280;43392;50.078;13.704;2023-03-26T00:32:08;96111.78;;;6.51;76.77
56894;BME280;43392;50.078;13.704;2023-03-26T00:34:34;96107.78;;;6.54;76.74
56894;BME280;43392;50.078;13.704;2023-03-26T00:37:01;96110.69;;;6.52;76.63
56894;BME280;43392;50.078;13.704;2023-03-26T00:39:28;96112.84;;;6.50;76.66
56894;BME280;43392;50.078;13.704;2023-03-26T00:41:59;96106.47;;;6.46;76.69
56894;BME280;43392;50.078;13.704;2023-03-26T00:44:31;96098.19;;;6.43;76.50
56894;BME280;43392;50.078;13.704;2023-03-26T00:47:00;96097.69;;;6.41;76.61
56894;BME280;43392;50.078;13.704;2023-03-26T00:49:26;96096.88;;;6.40;76.63
56894;BME280;43392;50.078;13.704;2023-03-26T00:51:55;96097.97;;;6.39;76.48
56894;BME280;43392;50.078;13.704;2023-03-26T00:54:21;96098.72;;;6.40;76.58
56894;BME280;43392;50.078;13.704;2023-03-26T00:56:48;96099.28;;;6.37;76.68
56894;BME280;43392;50.078;13.704;2023-03-26T00:59:14;96090.22;;;6.33;76.36
56894;BME280;43392;50.078;13.704;2023-03-26T01:01:41;96090.50;;;6.36;76.70
56894;BME280;43392;50.078;13.704;2023-03-26T01:04:26;96085.19;;;6.36;76.45
56894;BME280;43392;50.078;13.704;2023-03-26T01:06:55;96071.88;;;6.31;76.73
56894;BME280;43392;50.078;13.704;2023-03-26T01:09:26;96075.06;;;6.28;77.06
56894;BME280;43392;50.078;13.704;2023-03-26T01:11:55;96076.16;;;6.22;76.90
56894;BME280;43392;50.078;13.704;2023-03-26T01:14:23;96072.69;;;6.22;77.15
56894;BME280;43392;50.078;13.704;2023-03-26T01:16:52;96068.41;;;6.21;77.20
56894;BME280;43392;50.078;13.704;2023-03-26T01:19:24;96068.44;;;6.16;77.52
56894;BME280;43392;50.078;13.704;2023-03-26T01:21:53;96072.16;;;6.15;77.63
56894;BME280;43392;50.078;13.704;2023-03-26T01:24:21;96075.63;;;6.15;77.72
56894;BME280;43392;50.078;13.704;2023-03-26T01:26:55;96064.72;;;6.17;77.61
56894;BME280;43392;50.078;13.704;2023-03-26T01:29:29;96064.94;;;6.20;77.61
56894;BME280;43392;50.078;13.704;2023-03-26T01:32:05;96062.03;;;6.22;77.67
56894;BME280;43392;50.078;13.704;2023-03-26T01:34:45;96060.72;;;6.24;77.52
56894;BME280;43392;50.078;13.704;2023-03-26T01:37:20;96068.94;;;6.28;77.37
56894;BME280;43392;50.078;13.704;2023-03-26T01:39:54;96064.94;;;6.30;77.23
56894;BME280;43392;50.078;13.704;2023-03-26T01:42:28;96068.13;;;6.32;77.20
56894;BME280;43392;50.078;13.704;2023-03-26T01:45:03;96062.25;;;6.35;77.03
56894;BME280;43392;50.078;13.704;2023-03-26T01:47:33;96076.38;;;6.36;76.93
56894;BME280;43392;50.078;13.704;2023-03-26T01:50:01;96078.75;;;6.37;76.83
56894;BME280;43392;50.078;13.704;2023-03-26T01:52:27;96077.72;;;6.38;76.70
56894;BME280;43392;50.078;13.704;2023-03-26T01:54:55;96077.44;;;6.40;76.85
56894;BME280;43392;50.078;13.704;2023-03-26T01:57:29;96073.44;;;6.42;76.75
56894;BME280;43392;50.078;13.704;2023-03-26T02:00:06;96075.03;;;6.43;76.86
56894;BME280;43392;50.078;13.704;2023-03-26T02:02:44;96076.63;;;6.44;76.65
56894;BME280;43392;50.078;13.704;2023-03-26T02:05:20;96077.16;;;6.46;76.68
56894;BME280;43392;50.078;13.704;2023-03-26T02:07:52;96073.69;;;6.46;76.69
56894;BME280;43392;50.078;13.704;2023-03-26T02:10:24;96078.50;;;6.44;76.93
56894;BME280;43392;50.078;13.704;2023-03-26T02:12:53;96072.38;;;6.43;76.89
56894;BME280;43392;50.078;13.704;2023-03-26T02:15:20;96074.22;;;6.43;77.17
56894;BME280;43392;50.078;13.704;2023-03-26T02:17:46;96082.22;;;6.43;77.47
56894;BME280;43392;50.078;13.704;2023-03-26T02:20:14;96066.53;;;6.41;78.51
56894;BME280;43392;50.078;13.704;2023-03-26T02:22:43;96066.53;;;6.41;78.58
56894;BME280;43392;50.078;13.704;2023-03-26T02:25:13;96066.53;;;6.41;79.21
56894;BME280;43392;50.078;13.704;2023-03-26T02:27:43;96061.19;;;6.41;78.93
56894;BME280;43392;50.078;13.704;2023-03-26T02:30:12;96064.63;;;6.42;79.27
56894;BME280;43392;50.078;13.704;2023-03-26T02:32:39;96066.25;;;6.43;79.11
56894;BME280;43392;50.078;13.704;2023-03-26T02:35:09;96067.03;;;6.43;79.29
56894;BME280;43392;50.078;13.704;2023-03-26T02:37:36;96058.53;;;6.46;79.59
56894;BME280;43392;50.078;13.704;2023-03-26T02:40:04;96054.78;;;6.47;79.24
56894;BME280;43392;50.078;13.704;2023-03-26T02:42:36;96058.53;;;6.46;79.47
56894;BME280;43392;50.078;13.704;2023-03-26T02:45:05;96065.41;;;6.52;79.16
56894;BME280;43392;50.078;13.704;2023-03-26T02:47:32;96067.03;;;6.53;79.25
56894;BME280;43392;50.078;13.704;2023-03-26T02:49:59;96064.34;;;6.53;79.57
56894;BME280;43392;50.078;13.704;2023-03-26T02:52:25;96059.56;;;6.55;79.61
56894;BME280;43392;50.078;13.704;2023-03-26T02:54:52;96061.94;;;6.57;79.29
56894;BME280;43392;50.078;13.704;2023-03-26T02:57:19;96067.00;;;6.58;79.55
56894;BME280;43392;50.078;13.704;2023-03-26T02:59:45;96061.13;;;6.61;79.31
56894;BME280;43392;50.078;13.704;2023-03-26T03:02:15;96064.34;;;6.63;79.47
56894;BME280;43392;50.078;13.704;2023-03-26T03:04:42;96059.00;;;6.63;79.16
56894;BME280;43392;50.078;13.704;2023-03-26T03:07:09;96069.66;;;6.63;79.27
56894;BME280;43392;50.078;13.704;2023-03-26T03:09:38;96058.19;;;6.63;79.37
56894;BME280;43392;50.078;13.704;2023-03-26T03:12:05;96060.56;;;6.64;79.26
56894;BME280;43392;50.078;13.704;2023-03-26T03:14:32;96055.25;;;6.64;79.21
56894;BME280;43392;50.078;13.704;2023-03-26T03:16:58;96059.00;;;6.63;79.50
56894;BME280;43392;50.078;13.704;2023-03-26T03:19:26;96058.19;;;6.63;79.57
56894;BME280;43392;50.078;13.704;2023-03-26T03:21:53;96060.06;;;6.62;79.46
56894;BME280;43392;50.078;13.704;2023-03-26T03:24:19;96048.59;;;6.62;79.39
56894;BME280;43392;50.078;13.704;2023-03-26T03:26:46;96043.56;;;6.60;79.17
56894;BME280;43392;50.078;13.704;2023-03-26T03:29:14;96049.13;;;6.59;79.38
56894;BME280;43392;50.078;13.704;2023-03-26T03:31:41;96054.75;;;6.57;79.13
56894;BME280;43392;50.078;13.704;2023-03-26T03:34:08;96045.16;;;6.56;79.38
56894;BME280;43392;50.078;13.704;2023-03-26T03:36:36;96039.81;;;6.56;79.23
56894;BME280;43392;50.078;13.704;2023-03-26T03:39:03;96053.13;;;6.56;79.38
56894;BME280;43392;50.078;13.704;2023-03-26T03:41:30;96046.25;;;6.55;79.47
56894;BME280;43392;50.078;13.704;2023-03-26T03:43:56;96057.94;;;6.54;79.33
56894;BME280;43392;50.078;13.704;2023-03-26T03:46:24;96059.56;;;6.55;79.29
56894;BME280;43392;50.078;13.704;2023-03-26T03:48:50;96064.88;;;6.55;79.55
56894;BME280;43392;50.078;13.704;2023-03-26T03:51:17;96055.56;;;6.58;79.36
56894;BME280;43392;50.078;13.704;2023-03-26T03:53:45;96057.13;;;6.59;79.47
56894;BME280;43392;50.078;13.704;2023-03-26T03:56:13;96061.69;;;6.58;79.27
56894;BME280;43392;50.078;13.704;2023-03-26T03:58:43;96064.34;;;6.58;79.33
56894;BME280;43392;50.078;13.704;2023-03-26T04:01:11;96059.03;;;6.58;78.97
56894;BME280;43392;50.078;13.704;2023-03-26T04:03:39;96062.19;;;6.60;79.19
56894;BME280;43392;50.078;13.704;2023-03-26T04:06:06;96062.19;;;6.60;79.04
56894;BME280;43392;50.078;13.704;2023-03-26T04:08:35;96048.88;;;6.60;78.92
56894;BME280;43392;50.078;13.704;2023-03-26T04:11:03;96053.13;;;6.61;79.28
56894;BME280;43392;50.078;13.704;2023-03-26T04:13:30;96052.34;;;6.61;79.21
56894;BME280;43392;50.078;13.704;2023-03-26T04:15:57;96046.47;;;6.59;78.71
56894;BME280;43392;50.078;13.704;2023-03-26T04:18:24;96054.72;;;6.62;78.87
56894;BME280;43392;50.078;13.704;2023-03-26T04:20:52;96053.13;;;6.61;78.91
56894;BME280;43392;50.078;13.704;2023-03-26T04:23:20;96049.69;;;6.61;78.89
56894;BME280;43392;50.078;13.704;2023-03-26T04:25:50;96047.78;;;6.61;78.89
56894;BME280;43392;50.078;13.704;2023-03-26T04:28:24;96040.09;;;6.60;78.86
56894;BME280;43392;50.078;13.704;2023-03-26T04:30:55;96042.22;;;6.58;79.25
56894;BME280;43392;50.078;13.704;2023-03-26T04:33:26;96044.63;;;6.59;79.08
56894;BME280;43392;50.078;13.704;2023-03-26T04:35:53;96042.75;;;6.60;78.71
56894;BME280;43392;50.078;13.704;2023-03-26T04:38:21;96047.03;;;6.61;78.84
56894;BME280;43392;50.078;13.704;2023-03-26T04:40:48;96045.94;;;6.62;78.88
56894;BME280;43392;50.078;13.704;2023-03-26T04:43:15;96046.75;;;6.62;78.69
56894;BME280;43392;50.078;13.704;2023-03-26T04:45:44;96042.22;;;6.63;78.61
56894;BME280;43392;50.078;13.704;2023-03-26T04:48:12;96037.69;;;6.63;78.95
56894;BME280;43392;50.078;13.704;2023-03-26T04:50:40;96034.47;;;6.61;78.90
56894;BME280;43392;50.078;13.704;2023-03-26T04:53:09;96032.09;;;6.60;78.74
56894;BME280;43392;50.078;13.704;2023-03-26T04:55:38;96026.78;;;6.60;78.57
56894;BME280;43392;50.078;13.704;2023-03-26T04:58:07;96033.16;;;6.59;78.91
56894;BME280;43392;50.078;13.704;2023-03-26T05:00:33;96024.66;;;6.57;78.76
56894;BME280;43392;50.078;13.704;2023-03-26T05:03:01;96033.44;;;6.57;78.72
56894;BME280;43392;50.078;13.704;2023-03-26T05:05:28;96022.78;;;6.57;78.96
56894;BME280;43392;50.078;13.704;2023-03-26T05:07:55;96028.63;;;6.59;78.91
56894;BME280;43392;50.078;13.704;2023-03-26T05:10:21;96023.31;;;6.59;79.01
56894;BME280;43392;50.078;13.704;2023-03-26T05:12:48;96032.38;;;6.58;78.86
56894;BME280;43392;50.078;13.704;2023-03-26T05:15:15;96029.97;;;6.57;78.77
56894;BME280;43392;50.078;13.704;2023-03-26T05:17:41;96039.03;;;6.61;78.84
56894;BME280;43392;50.078;13.704;2023-03-26T05:20:16;96027.28;;;6.62;78.78
56894;BME280;43392;50.078;13.704;2023-03-26T05:22:45;96019.06;;;6.58;78.78
56894;BME280;43392;50.078;13.704;2023-03-26T05:25:12;96017.44;;;6.62;79.18
56894;BME280;43392;50.078;13.704;2023-03-26T05:27:38;96006.28;;;6.60;78.70
56894;BME280;43392;50.078;13.704;2023-03-26T05:30:06;96010.53;;;6.56;78.71
56894;BME280;43392;50.078;13.704;2023-03-26T05:32:34;96016.66;;;6.52;78.55
56894;BME280;43392;50.078;13.704;2023-03-26T05:35:02;96008.16;;;6.50;78.89
56894;BME280;43392;50.078;13.704;2023-03-26T05:37:30;96006.03;;;6.47;78.80
56894;BME280;43392;50.078;13.704;2023-03-26T05:39:57;96002.81;;;6.55;78.74
56894;BME280;43392;50.078;13.704;2023-03-26T05:42:25;96008.66;;;6.62;78.84
56894;BME280;43392;50.078;13.704;2023-03-26T05:44:52;96003.59;;;6.65;78.59
56894;BME280;43392;50.078;13.704;2023-03-26T05:47:18;96000.63;;;6.72;78.33
56894;BME280;43392;50.078;13.704;2023-03-26T05:49:45;95992.09;;;6.75;78.02
56894;BME280;43392;50.078;13.704;2023-03-26T05:52:11;95993.41;;;6.73;78.02
56894;BME280;43392;50.078;13.704;2023-03-26T05:54:42;96001.66;;;6.71;78.05
56894;BME280;43392;50.078;13.704;2023-03-26T05:57:08;95998.00;;;6.62;78.28
56894;BME280;43392;50.078;13.704;2023-03-26T05:59:35;96008.41;;;6.58;78.58
56894;BME280;43392;50.078;13.704;2023-03-26T06:02:02;96009.19;;;6.59;78.63
56894;BME280;43392;50.078;13.704;2023-03-26T06:04:28;96010.00;;;6.59;78.32
56894;BME280;43392;50.078;13.704;2023-03-26T06:06:56;95991.66;;;6.53;78.42
56894;BME280;43392;50.078;13.704;2023-03-26T06:09:22;95993.97;;;6.69;78.15
56894;BME280;43392;50.078;13.704;2023-03-26T06:11:50;96012.03;;;6.83;77.89
56894;BME280;43392;50.078;13.704;2023-03-26T06:14:17;96009.84;;;6.90;77.66
56894;BME280;43392;50.078;13.704;2023-03-26T06:16:44;96007.72;;;6.92;77.58
56894;BME280;43392;50.078;13.704;2023-03-26T06:19:10;96000.22;;;6.94;77.31
56894;BME280;43392;50.078;13.704;2023-03-26T06:21:37;96013.53;;;6.99;77.03
56894;BME280;43392;50.078;13.704;2023-03-26T06:24:04;96014.34;;;6.94;77.45
56894;BME280;43392;50.078;13.704;2023-03-26T06:26:30;96015.94;;;6.95;77.28
56894;BME280;43392;50.078;13.704;2023-03-26T06:28:58;96014.59;;;6.98;77.12
56894;BME280;43392;50.078;13.704;2023-03-26T06:31:25;96028.16;;;7.06;77.15
56894;BME280;43392;50.078;13.704;2023-03-26T06:33:52;96031.25;;;7.23;76.74
56894;BME280;43392;50.078;13.704;2023-03-26T06:36:18;96024.50;;;7.36;76.26
56894;BME280;43392;50.078;13.704;2023-03-26T06:38:45;96003.66;;;7.43;75.86
56894;BME280;43392;50.078;13.704;2023-03-26T06:41:12;96019.88;;;7.47;75.80
56894;BME280;43392;50.078;13.704;2023-03-26T06:43:38;96020.38;;;7.49;75.40
56894;BME280;43392;50.078;13.704;2023-03-26T06:46:09;96016.41;;;7.46;75.82
56894;BME280;43392;50.078;13.704;2023-03-26T06:48:36;96015.38;;;7.42;75.74
56894;BME280;43392;50.078;13.704;2023-03-26T06:51:03;96014.84;;;7.40;75.71
56894;BME280;43392;50.078;13.704;2023-03-26T06:53:30;96017.25;;;7.42;75.68
56894;BME280;43392;50.078;13.704;2023-03-26T06:55:56;96021.22;;;7.44;75.57
56894;BME280;43392;50.078;13.704;2023-03-26T06:58:23;96019.63;;;7.48;75.87
56894;BME280;43392;50.078;13.704;2023-03-26T07:00:51;96013.94;;;7.55;75.78
56894;BME280;43392;50.078;13.704;2023-03-26T07:03:20;96020.81;;;7.61;75.21
56894;BME280;43392;50.078;13.704;2023-03-26T07:05:47;96022.94;;;7.64;75.24
56894;BME280;43392;50.078;13.704;2023-03-26T07:08:13;96026.13;;;7.66;74.86
56894;BME280;43392;50.078;13.704;2023-03-26T07:10:40;96020.22;;;7.69;74.73
56894;BME280;43392;50.078;13.704;2023-03-26T07:13:07;96030.56;;;7.75;74.33
56894;BME280;43392;50.078;13.704;2023-03-26T07:15:34;96023.47;;;8.23;79.73
56894;BME280;43392;50.078;13.704;2023-03-26T07:18:00;96014.38;;;9.14;74.03
56894;BME280;43392;50.078;13.704;2023-03-26T07:20:29;96018.22;;;9.26;71.03
56894;BME280;43392;50.078;13.704;2023-03-26T07:22:56;96014.66;;;9.12;70.63
56894;BME280;43392;50.078;13.704;2023-03-26T07:25:23;96002.88;;;8.95;70.27
56894;BME280;43392;50.078;13.704;2023-03-26T07:27:58;96009.28;;;8.75;70.73
56894;BME280;43392;50.078;13.704;2023-03-26T07:30:31;95994.16;;;8.65;71.39
56894;BME280;43392;50.078;13.704;2023-03-26T07:33:07;95991.78;;;8.64;71.32
56894;BME280;43392;50.078;13.704;2023-03-26T07:35:40;95985.06;;;8.66;71.14
56894;BME280;43392;50.078;13.704;2023-03-26T07:38:28;95974.53;;;8.75;71.63
56894;BME280;43392;50.078;13.704;2023-03-26T07:41:03;95960.53;;;8.83;70.76
56894;BME280;43392;50.078;13.704;2023-03-26T07:43:39;95965.88;;;8.83;70.50
56894;BME280;43392;50.078;13.704;2023-03-26T07:46:12;95968.91;;;8.95;70.51
56894;BME280;43392;50.078;13.704;2023-03-26T07:48:41;95955.69;;;9.04;70.18
56894;BME280;43392;50.078;13.704;2023-03-26T07:51:11;95958.56;;;9.07;69.77
56894;BME280;43392;50.078;13.704;2023-03-26T07:53:38;95963.28;;;9.15;68.79
56894;BME280;43392;50.078;13.704;2023-03-26T07:56:11;95967.94;;;9.23;69.11
56894;BME280;43392;50.078;13.704;2023-03-26T07:58:52;95957.69;;;9.30;68.89
56894;BME280;43392;50.078;13.704;2023-03-26T08:01:26;95956.22;;;9.38;68.55
56894;BME280;43392;50.078;13.704;2023-03-26T08:04:08;95957.38;;;9.51;68.22
56894;BME280;43392;50.078;13.704;2023-03-26T08:06:46;95959.88;;;9.61;68.12
56894;BME280;43392;50.078;13.704;2023-03-26T08:09:22;95959.47;;;9.54;66.53
56894;BME280;43392;50.078;13.704;2023-03-26T08:11:57;95950.22;;;9.46;66.58
56894;BME280;43392;50.078;13.704;2023-03-26T08:14:32;95963.72;;;9.55;67.52
56894;BME280;43392;50.078;13.704;2023-03-26T08:17:08;95952.34;;;9.63;67.43
56894;BME280;43392;50.078;13.704;2023-03-26T08:19:42;95955.34;;;9.75;68.65
56894;BME280;43392;50.078;13.704;2023-03-26T08:22:17;95950.72;;;9.94;64.80
56894;BME280;43392;50.078;13.704;2023-03-26T08:25:02;95942.84;;;9.70;64.04
56894;BME280;43392;50.078;13.704;2023-03-26T08:27:36;95942.78;;;9.75;65.31
56894;BME280;43392;50.078;13.704;2023-03-26T08:30:08;95937.91;;;9.91;64.87
56894;BME280;43392;50.078;13.704;2023-03-26T08:32:36;95934.56;;;9.99;63.33
56894;BME280;43392;50.078;13.704;2023-03-26T08:35:04;95920.69;;;10.11;63.71
56894;BME280;43392;50.078;13.704;2023-03-26T08:37:32;95923.75;;;10.04;62.38
56894;BME280;43392;50.078;13.704;2023-03-26T08:39:59;95918.75;;;10.16;62.72
56894;BME280;43392;50.078;13.704;2023-03-26T08:42:43;95916.94;;;10.25;62.12
56894;BME280;43392;50.078;13.704;2023-03-26T08:45:51;95919.72;;;10.20;61.89
56894;BME280;43392;50.078;13.704;2023-03-26T08:51:50;95908.28;;;10.01;60.67
56894;BME280;43392;50.078;13.704;2023-03-26T08:54:43;95915.06;;;10.12;61.75
56894;BME280;43392;50.078;13.704;2023-03-26T09:00:34;95912.97;;;10.23;61.08
56894;BME280;43392;50.078;13.704;2023-03-26T09:24:14;95890.66;;;10.77;62.42
56894;BME280;43392;50.078;13.704;2023-03-26T09:26:58;95900.88;;;10.88;62.47
56894;BME280;43392;50.078;13.704;2023-03-26T09:35:51;95889.97;;;10.85;61.76
56894;BME280;43392;50.078;13.704;2023-03-26T09:38:37;95899.41;;;10.82;61.12
56894;BME280;43392;50.078;13.704;2023-03-26T09:41:13;95893.56;;;10.80;61.01
56894;BME280;43392;50.078;13.704;2023-03-26T09:46:45;95882.63;;;10.77;60.55
56894;BME280;43392;50.078;13.704;2023-03-26T09:49:33;95874.28;;;10.78;60.91
56894;BME280;43392;50.078;13.704;2023-03-26T09:52:18;95858.19;;;10.78;60.67
56894;BME280;43392;50.078;13.704;2023-03-26T09:58:11;95857.66;;;10.90;61.12
56894;BME280;43392;50.078;13.704;2023-03-26T10:00:44;95854.84;;;10.95;60.99
56894;BME280;43392;50.078;13.704;2023-03-26T10:03:29;95850.00;;;10.97;60.73
56894;BME280;43392;50.078;13.704;2023-03-26T10:06:11;95849.66;;;10.98;61.04
56894;BME280;43392;50.078;13.704;2023-03-26T10:08:50;95844.00;;;11.00;60.84
56894;BME280;43392;50.078;13.704;2023-03-26T10:11:28;95850.84;;;11.06;61.25
56894;BME280;43392;50.078;13.704;2023-03-26T10:14:08;95842.34;;;11.12;61.57
56894;BME280;43392;50.078;13.704;2023-03-26T10:16:48;95845.09;;;11.21;62.04
56894;BME280;43392;50.078;13.704;2023-03-26T10:19:26;95828.91;;;11.34;62.10
56894;BME280;43392;50.078;13.704;2023-03-26T10:22:01;95831.16;;;11.41;61.29
56894;BME280;43392;50.078;13.704;2023-03-26T10:24:47;95827.06;;;11.44;61.19
56894;BME280;43392;50.078;13.704;2023-03-26T10:27:29;95828.81;;;11.48;60.98
56894;BME280;43392;50.078;13.704;2023-03-26T10:33:08;95812.16;;;11.60;60.16
56894;BME280;43392;50.078;13.704;2023-03-26T10:35:46;95801.59;;;11.63;59.88
56894;BME280;43392;50.078;13.704;2023-03-26T10:38:23;95805.63;;;11.74;59.19
56894;BME280;43392;50.078;13.704;2023-03-26T10:40:58;95798.69;;;11.82;59.28
56894;BME280;43392;50.078;13.704;2023-03-26T10:43:43;95794.75;;;11.88;58.46
56894;BME280;43392;50.078;13.704;2023-03-26T10:46:30;95795.09;;;11.86;57.53
56894;BME280;43392;50.078;13.704;2023-03-26T10:49:30;95799.13;;;11.75;58.27
56894;BME280;43392;50.078;13.704;2023-03-26T10:52:01;95789.66;;;11.69;58.30
56894;BME280;43392;50.078;13.704;2023-03-26T10:54:36;95796.22;;;11.63;57.46
56894;BME280;43392;50.078;13.704;2023-03-26T10:57:14;95795.88;;;11.56;56.65
56894;BME280;43392;50.078;13.704;2023-03-26T10:59:41;95784.00;;;11.49;56.86
56894;BME280;43392;50.078;13.704;2023-03-26T11:02:23;95786.50;;;11.45;57.08
56894;BME280;43392;50.078;13.704;2023-03-26T11:04:57;95787.00;;;11.47;57.01
56894;BME280;43392;50.078;13.704;2023-03-26T11:07:33;95778.94;;;11.47;57.11
56894;BME280;43392;50.078;13.704;2023-03-26T11:10:05;95784.31;;;11.47;57.71
56894;BME280;43392;50.078;13.704;2023-03-26T11:12:39;95779.75;;;11.48;57.89
56894;BME280;43392;50.078;13.704;2023-03-26T11:15:18;95778.47;;;11.54;58.57
56894;BME280;43392;50.078;13.704;2023-03-26T11:17:57;95770.63;;;11.57;58.89
56894;BME280;43392;50.078;13.704;2023-03-26T11:20:34;95772.53;;;11.65;58.93
56894;BME280;43392;50.078;13.704;2023-03-26T11:23:12;95762.44;;;11.62;58.07
56894;BME280;43392;50.078;13.704;2023-03-26T11:25:56;95762.78;;;11.69;58.61
56894;BME280;43392;50.078;13.704;2023-03-26T11:28:36;95754.94;;;11.81;58.85
56894;BME280;43392;50.078;13.704;2023-03-26T11:31:09;95753.19;;;11.85;58.26
56894;BME280;43392;50.078;13.704;2023-03-26T11:33:44;95756.06;;;11.89;58.19
56894;BME280;43392;50.078;13.704;2023-03-26T11:36:15;95750.38;;;11.90;57.48
56894;BME280;43392;50.078;13.704;2023-03-26T11:38:45;95754.94;;;11.90;57.81
56894;BME280;43392;50.078;13.704;2023-03-26T11:41:15;95751.31;;;11.86;57.77
56894;BME280;43392;50.078;13.704;2023-03-26T11:43:43;95756.22;;;11.84;57.68
56894;BME280;43392;50.078;13.704;2023-03-26T11:46:17;95750.66;;;11.80;57.47
56894;BME280;43392;50.078;13.704;2023-03-26T11:48:48;95738.97;;;11.76;57.83
56894;BME280;43392;50.078;13.704;2023-03-26T11:51:22;95744.59;;;11.66;57.64
56894;BME280;43392;50.078;13.704;2023-03-26T11:53:52;95749.66;;;11.68;58.20
56894;BME280;43392;50.078;13.704;2023-03-26T11:56:24;95752.34;;;11.68;57.88
56894;BME280;43392;50.078;13.704;2023-03-26T11:58:55;95751.03;;;11.65;58.39
56894;BME280;43392;50.078;13.704;2023-03-26T12:01:27;95744.72;;;11.61;58.17
56894;BME280;43392;50.078;13.704;2023-03-26T12:03:56;95737.47;;;11.62;58.67
56894;BME280;43392;50.078;13.704;2023-03-26T12:06:25;95745.56;;;11.70;58.97
56894;BME280;43392;50.078;13.704;2023-03-26T12:08:53;95742.13;;;11.70;57.64
56894;BME280;43392;50.078;13.704;2023-03-26T12:11:24;95737.50;;;11.70;57.82
56894;BME280;43392;50.078;13.704;2023-03-26T12:13:54;95729.44;;;11.70;57.49
56894;BME280;43392;50.078;13.704;2023-03-26T12:16:23;95729.44;;;11.70;57.50
56894;BME280;43392;50.078;13.704;2023-03-26T12:19:01;95726.25;;;11.60;57.13
56894;BME280;43392;50.078;13.704;2023-03-26T12:21:43;95728.88;;;11.51;58.64
56894;BME280;43392;50.078;13.704;2023-03-26T12:24:25;95737.22;;;11.41;59.87
56894;BME280;43392;50.078;13.704;2023-03-26T12:26:56;95723.44;;;11.34;60.45
56894;BME280;43392;50.078;13.704;2023-03-26T12:29:27;95732.44;;;11.29;61.27
56894;BME280;43392;50.078;13.704;2023-03-26T12:31:55;95727.69;;;11.26;61.21
56894;BME280;43392;50.078;13.704;2023-03-26T12:34:28;95735.31;;;11.33;61.74
56894;BME280;43392;50.078;13.704;2023-03-26T12:37:01;95725.97;;;11.30;61.74
56894;BME280;43392;50.078;13.704;2023-03-26T12:39:33;95735.09;;;11.21;62.50
56894;BME280;43392;50.078;13.704;2023-03-26T12:42:01;95740.38;;;11.04;63.40
56894;BME280;43392;50.078;13.704;2023-03-26T12:44:33;95733.78;;;10.88;64.41
56894;BME280;43392;50.078;13.704;2023-03-26T12:47:09;95734.91;;;10.64;65.39
56894;BME280;43392;50.078;13.704;2023-03-26T12:49:38;95728.94;;;10.45;66.27
56894;BME280;43392;50.078;13.704;2023-03-26T12:52:20;95729.00;;;10.32;66.91
56894;BME280;43392;50.078;13.704;2023-03-26T12:54:52;95725.63;;;10.26;67.26
56894;BME280;43392;50.078;13.704;2023-03-26T12:57:28;95726.34;;;10.18;67.64
56894;BME280;43392;50.078;13.704;2023-03-26T13:00:18;95717.72;;;10.21;68.22
56894;BME280;43392;50.078;13.704;2023-03-26T13:06:08;95734.94;;;9.93;69.75
56894;BME280;43392;50.078;13.704;2023-03-26T13:09:00;95737.81;;;9.83;69.48
56894;BME280;43392;50.078;13.704;2023-03-26T13:11:37;95739.41;;;9.70;70.23
56894;BME280;43392;50.078;13.704;2023-03-26T13:14:31;95732.97;;;9.58;71.23
56894;BME280;43392;50.078;13.704;2023-03-26T13:17:03;95731.28;;;9.48;71.58
56894;BME280;43392;50.078;13.704;2023-03-26T13:19:41;95728.41;;;9.45;72.01
56894;BME280;43392;50.078;13.704;2023-03-26T13:22:19;95730.31;;;9.44;72.49
56894;BME280;43392;50.078;13.704;2023-03-26T13:24:58;95724.16;;;9.44;72.67
56894;BME280;43392;50.078;13.704;2023-03-26T13:27:45;95713.16;;;9.45;73.20
56894;BME280;43392;50.078;13.704;2023-03-26T13:30:24;95719.31;;;9.46;73.01
56894;BME280;43392;50.078;13.704;2023-03-26T13:33:03;95714.75;;;9.46;73.32
56894;BME280;43392;50.078;13.704;2023-03-26T13:35:36;95717.84;;;9.40;72.81
56894;BME280;43392;50.078;13.704;2023-03-26T13:38:09;95715.75;;;9.37;73.22
56894;BME280;43392;50.078;13.704;2023-03-26T13:40:48;95707.22;;;9.34;73.50
56894;BME280;43392;50.078;13.704;2023-03-26T13:43:32;95703.84;;;9.29;72.31
56894;BME280;43392;50.078;13.704;2023-03-26T13:46:08;95698.69;;;9.19;72.53
56894;BME280;43392;50.078;13.704;2023-03-26T13:48:42;95687.19;;;9.18;72.88
56894;BME280;43392;50.078;13.704;2023-03-26T13:51:13;95694.16;;;9.19;73.09
56894;BME280;43392;50.078;13.704;2023-03-26T13:53:47;95683.22;;;9.16;73.14
56894;BME280;43392;50.078;13.704;2023-03-26T13:56:20;95683.22;;;9.16;73.05
56894;BME280;43392;50.078;13.704;2023-03-26T13:58:53;95681.66;;;9.15;73.27
56894;BME280;43392;50.078;13.704;2023-03-26T14:01:26;95680.88;;;9.14;73.70
56894;BME280;43392;50.078;13.704;2023-03-26T14:04:03;95675.53;;;9.14;73.95
56894;BME280;43392;50.078;13.704;2023-03-26T14:06:40;95677.13;;;9.15;74.01